createdAt,value
2019-01-11T00:02:08.665Z,13.18
2019-01-11T00:04:36.548Z,13.28
2019-01-11T00:07:04.210Z,13.90
2019-01-11T00:09:32.090Z,13.50
2019-01-11T00:12:00.022Z,13.18
2019-01-11T00:14:27.766Z,12.07
2019-01-11T00:16:55.694Z,11.05
2019-01-11T00:19:23.630Z,12.28
2019-01-11T00:21:52.966Z,13.70
2019-01-11T00:24:20.899Z,12.35
2019-01-11T00:26:49.640Z,13.10
2019-01-11T00:29:17.450Z,13.28
2019-01-11T00:31:46.119Z,13.20
2019-01-11T00:34:14.405Z,12.00
2019-01-11T00:36:43.322Z,12.85
2019-01-11T00:39:11.288Z,12.80
2019-01-11T00:41:40.256Z,12.45
2019-01-11T00:44:07.904Z,11.73
2019-01-11T00:46:36.025Z,11.65
2019-01-11T00:49:04.884Z,13.75
2019-01-11T00:51:32.766Z,13.60
2019-01-11T00:54:00.530Z,12.43
2019-01-11T00:56:28.466Z,11.35
2019-01-11T00:58:56.362Z,12.00
2019-01-11T01:01:24.182Z,12.15
2019-01-11T01:03:51.923Z,12.13
2019-01-11T01:06:19.470Z,14.13
2019-01-11T01:08:48.352Z,9.95
2019-01-11T01:11:16.119Z,11.53
2019-01-11T01:13:43.737Z,12.03
2019-01-11T01:16:11.439Z,11.50
2019-01-11T01:18:39.342Z,12.73
2019-01-11T01:21:07.545Z,13.10
2019-01-11T01:23:35.384Z,13.40
2019-01-11T01:26:03.080Z,11.05
2019-01-11T01:28:30.649Z,10.75
2019-01-11T01:30:58.730Z,13.45
2019-01-11T01:33:26.484Z,11.50
2019-01-11T01:35:55.144Z,12.82
2019-01-11T01:38:23.141Z,11.93
2019-01-11T01:40:50.903Z,12.13
2019-01-11T01:43:18.844Z,12.33
2019-01-11T01:45:47.466Z,12.70
2019-01-11T01:48:15.049Z,12.33
2019-01-11T01:50:44.802Z,11.70
2019-01-11T01:53:12.692Z,9.18
2019-01-11T01:55:40.556Z,11.70
2019-01-11T01:58:08.336Z,10.50
2019-01-11T02:00:37.111Z,12.37
2019-01-11T02:03:05.030Z,12.10
2019-01-11T02:05:32.942Z,12.00
2019-01-11T02:08:00.733Z,11.70
2019-01-11T02:10:28.520Z,13.68
2019-01-11T02:12:56.337Z,11.95
2019-01-11T02:15:24.366Z,11.28
2019-01-11T02:17:55.076Z,12.20
2019-01-11T02:20:22.963Z,13.48
2019-01-11T02:22:51.392Z,13.08
2019-01-11T02:25:19.119Z,13.65
2019-01-11T02:27:48.241Z,11.83
2019-01-11T02:30:20.778Z,13.08
2019-01-11T02:32:53.122Z,13.55
2019-01-11T02:35:18.876Z,12.65
2019-01-11T02:37:49.337Z,12.47
2019-01-11T02:40:17.416Z,16.27
2019-01-11T02:42:48.810Z,13.95
2019-01-11T02:45:19.111Z,13.62
2019-01-11T02:47:47.195Z,11.93
2019-01-11T02:50:15.348Z,13.30
2019-01-11T02:52:43.054Z,13.98
2019-01-11T02:55:11.126Z,14.78
2019-01-11T02:57:39.327Z,14.43
2019-01-11T03:00:11.776Z,12.80
2019-01-11T03:02:40.427Z,13.38
2019-01-11T03:05:09.588Z,12.55
2019-01-11T03:07:37.636Z,13.62
2019-01-11T03:10:08.682Z,13.45
2019-01-11T03:12:38.524Z,13.90
2019-01-11T03:15:06.682Z,15.00
2019-01-11T03:17:34.640Z,15.05
2019-01-11T03:20:02.951Z,14.15
2019-01-11T03:22:30.986Z,15.20
2019-01-11T03:24:58.633Z,12.58
2019-01-11T03:27:26.323Z,13.45
2019-01-11T03:29:55.150Z,14.53
2019-01-11T03:32:22.937Z,13.75
2019-01-11T03:35:12.512Z,14.55
2019-01-11T03:37:40.404Z,13.50
2019-01-11T03:40:09.626Z,14.23
2019-01-11T03:42:37.814Z,11.60
2019-01-11T03:45:08.106Z,12.60
2019-01-11T03:47:36.858Z,14.55
2019-01-11T03:50:06.007Z,11.60
2019-01-11T03:52:34.190Z,13.18
2019-01-11T03:55:02.288Z,12.82
2019-01-11T03:57:31.213Z,12.95
2019-01-11T03:59:59.369Z,13.75
2019-01-11T04:02:27.301Z,13.25
2019-01-11T04:04:55.113Z,14.30
2019-01-11T04:07:23.109Z,12.75
2019-01-11T04:09:50.870Z,14.00
2019-01-11T04:12:19.019Z,11.93
2019-01-11T04:14:46.631Z,12.15
2019-01-11T04:17:14.450Z,13.58
2019-01-11T04:19:42.376Z,14.15
2019-01-11T04:22:18.241Z,11.93
2019-01-11T04:25:09.151Z,11.48
2019-01-11T04:27:38.425Z,14.55
2019-01-11T04:30:26.952Z,12.05
2019-01-11T04:32:54.982Z,14.00
2019-01-11T04:35:23.956Z,13.68
2019-01-11T04:37:51.970Z,14.78
2019-01-11T04:40:20.967Z,13.28
2019-01-11T04:42:51.311Z,12.68
2019-01-11T04:45:19.387Z,12.23
2019-01-11T04:47:48.263Z,13.28
2019-01-11T04:50:19.475Z,13.35
2019-01-11T04:52:48.633Z,13.55
2019-01-11T04:55:16.308Z,14.28
2019-01-11T04:57:44.264Z,16.00
2019-01-11T05:00:15.135Z,14.33
2019-01-11T05:02:42.864Z,14.05
2019-01-11T05:05:12.026Z,14.83
2019-01-11T05:07:39.923Z,15.28
2019-01-11T05:10:09.310Z,14.40
2019-01-11T05:12:36.930Z,15.32
2019-01-11T05:15:05.543Z,15.30
2019-01-11T05:17:33.444Z,14.93
2019-01-11T05:20:01.258Z,14.40
2019-01-11T05:22:29.046Z,11.15
2019-01-11T05:24:56.793Z,12.70
2019-01-11T05:27:24.755Z,13.65
2019-01-11T05:29:55.172Z,12.33
2019-01-11T05:32:23.177Z,13.22
2019-01-11T05:34:52.021Z,12.93
2019-01-11T05:37:20.482Z,14.70
2019-01-11T05:39:51.172Z,13.28
2019-01-11T05:42:18.934Z,14.95
2019-01-11T05:44:52.487Z,14.15
2019-01-11T05:47:20.259Z,14.70
2019-01-11T05:49:49.073Z,15.80
2019-01-11T05:52:16.887Z,15.10
2019-01-11T05:54:45.649Z,14.60
2019-01-11T05:57:14.672Z,13.90
2019-01-11T05:59:42.477Z,14.33
2019-01-11T06:02:10.104Z,14.53
2019-01-11T06:04:45.177Z,13.35
2019-01-11T06:07:24.304Z,12.85
2019-01-11T06:09:52.022Z,12.78
2019-01-11T06:12:19.936Z,13.75
2019-01-11T06:14:47.502Z,12.73
2019-01-11T06:17:15.463Z,12.90
2019-01-11T06:19:43.366Z,13.88
2019-01-11T06:22:11.414Z,13.98
2019-01-11T06:24:41.460Z,15.60
2019-01-11T06:27:10.473Z,16.10
2019-01-11T06:29:38.375Z,14.78
2019-01-11T06:32:06.209Z,16.27
2019-01-11T06:34:34.225Z,14.68
2019-01-11T06:37:02.067Z,15.38
2019-01-11T06:39:29.812Z,16.55
2019-01-11T06:42:04.423Z,16.60
2019-01-11T06:44:32.081Z,16.60
2019-01-11T06:46:59.825Z,16.48
2019-01-11T06:49:27.727Z,18.15
2019-01-11T06:51:55.597Z,17.62
2019-01-11T06:54:23.629Z,18.50
2019-01-11T06:56:55.339Z,20.15
2019-01-11T06:59:23.352Z,19.12
2019-01-11T07:01:54.744Z,18.57
2019-01-11T07:04:22.305Z,18.05
2019-01-11T07:06:50.733Z,18.23
2019-01-11T07:09:18.658Z,16.93
2019-01-11T07:11:48.349Z,17.77
2019-01-11T07:14:16.368Z,18.40
2019-01-11T07:16:45.314Z,17.40
2019-01-11T07:19:13.449Z,16.15
2019-01-11T07:21:41.691Z,17.82
2019-01-11T07:24:09.436Z,16.25
2019-01-11T07:26:39.543Z,13.32
2019-01-11T07:29:07.592Z,17.73
2019-01-11T07:31:36.199Z,22.35
2019-01-11T07:34:04.371Z,25.02
2019-01-11T07:36:41.587Z,28.87
2019-01-11T07:39:29.335Z,31.33
2019-01-11T07:41:59.949Z,28.87
2019-01-11T07:44:28.278Z,24.18
2019-01-11T07:46:56.460Z,20.45
2019-01-11T07:49:25.585Z,24.20
2019-01-11T07:51:53.696Z,25.20
2019-01-11T07:54:22.180Z,23.73
2019-01-11T07:56:52.780Z,20.15
2019-01-11T07:59:22.569Z,18.55
2019-01-11T08:01:50.570Z,21.97
2019-01-11T08:04:18.403Z,21.60
2019-01-11T08:06:46.475Z,20.20
2019-01-11T08:09:14.603Z,20.27
2019-01-11T08:11:42.279Z,17.00
2019-01-11T08:14:10.273Z,16.82
2019-01-11T08:16:43.945Z,17.95
2019-01-11T08:19:11.762Z,15.15
2019-01-11T08:21:39.987Z,13.32
2019-01-11T08:24:08.881Z,13.98
2019-01-11T08:26:40.504Z,11.60
2019-01-11T08:29:09.684Z,11.18
2019-01-11T08:31:37.593Z,11.33
2019-01-11T08:34:06.272Z,12.23
2019-01-11T08:36:35.023Z,13.78
2019-01-11T08:39:04.803Z,12.60
2019-01-11T08:41:32.610Z,10.60
2019-01-11T08:44:00.923Z,13.10
2019-01-11T08:46:28.847Z,16.25
2019-01-11T08:48:57.773Z,10.75
2019-01-11T08:51:25.877Z,12.93
2019-01-11T08:53:53.955Z,12.18
2019-01-11T08:56:21.627Z,11.95
2019-01-11T08:58:50.764Z,10.00
2019-01-11T09:01:18.966Z,11.90
2019-01-11T09:03:47.404Z,9.90
2019-01-11T09:06:15.480Z,12.75
2019-01-11T09:08:46.132Z,10.30
2019-01-11T09:11:14.067Z,11.38
2019-01-11T09:13:43.158Z,12.45
2019-01-11T09:16:10.722Z,12.07
2019-01-11T09:18:44.461Z,12.35
2019-01-11T09:21:13.452Z,12.15
2019-01-11T09:23:41.666Z,15.25
2019-01-11T09:26:10.831Z,12.37
2019-01-11T09:28:40.488Z,12.55
2019-01-11T09:31:09.281Z,14.58
2019-01-11T09:33:37.243Z,14.47
2019-01-11T09:36:05.159Z,15.80
2019-01-11T09:38:33.386Z,17.07
2019-01-11T09:41:06.092Z,17.82
2019-01-11T09:43:36.474Z,15.20
2019-01-11T09:46:05.083Z,15.72
2019-01-11T09:48:32.925Z,14.80
2019-01-11T09:51:00.764Z,17.20
2019-01-11T09:53:28.805Z,15.28
2019-01-11T09:55:57.114Z,17.23
2019-01-11T09:58:24.966Z,16.85
2019-01-11T10:00:58.999Z,20.23
2019-01-11T10:03:23.527Z,20.68
2019-01-11T10:05:51.687Z,18.98
2019-01-11T10:08:20.585Z,17.55
2019-01-11T10:10:49.685Z,17.87
2019-01-11T10:13:17.938Z,22.27
2019-01-11T10:15:46.136Z,18.10
2019-01-11T10:18:14.244Z,19.10
2019-01-11T10:20:47.253Z,16.52
2019-01-11T10:23:18.678Z,18.02
2019-01-11T10:25:46.591Z,14.95
2019-01-11T10:28:14.621Z,14.47
2019-01-11T10:30:45.001Z,13.08
2019-01-11T10:33:13.044Z,14.95
2019-01-11T10:35:48.849Z,14.75
2019-01-11T10:38:16.553Z,14.58
2019-01-11T10:40:44.178Z,16.70
2019-01-11T10:43:12.139Z,15.23
2019-01-11T10:45:40.838Z,15.72
2019-01-11T10:48:08.783Z,15.35
2019-01-11T10:50:36.311Z,14.90
2019-01-11T10:53:04.233Z,16.10
2019-01-11T10:55:31.854Z,15.72
2019-01-11T10:58:01.602Z,16.97
2019-01-11T11:00:29.876Z,16.48
2019-01-11T11:02:58.346Z,15.05
2019-01-11T11:05:26.742Z,15.23
2019-01-11T11:07:54.582Z,16.73
2019-01-11T11:10:23.726Z,14.38
2019-01-11T11:12:53.578Z,16.32
2019-01-11T11:15:21.384Z,18.30
2019-01-11T11:17:49.579Z,17.05
2019-01-11T11:20:19.267Z,15.70
2019-01-11T11:22:47.262Z,18.80
2019-01-11T11:25:17.240Z,16.70
2019-01-11T11:27:48.306Z,15.23
2019-01-11T11:30:18.493Z,15.55
2019-01-11T11:32:54.870Z,14.80
2019-01-11T11:35:23.565Z,15.45
2019-01-11T11:37:52.151Z,16.42
2019-01-11T11:40:27.472Z,17.67
2019-01-11T11:42:58.970Z,14.45
2019-01-11T11:45:27.044Z,16.40
2019-01-11T11:47:54.832Z,16.93
2019-01-11T11:50:22.553Z,16.32
2019-01-11T11:52:55.019Z,19.73
2019-01-11T11:55:24.953Z,20.50
2019-01-11T11:57:52.805Z,18.20
2019-01-11T12:00:26.917Z,16.75
2019-01-11T12:02:54.921Z,18.23
2019-01-11T12:05:22.682Z,19.07
2019-01-11T12:07:50.307Z,16.73
2019-01-11T12:10:18.341Z,17.15
2019-01-11T12:12:46.164Z,19.15
2019-01-11T12:15:14.401Z,18.98
2019-01-11T12:17:42.489Z,17.75
2019-01-11T12:20:30.096Z,15.40
2019-01-11T12:23:01.021Z,17.05
2019-01-11T12:25:28.685Z,17.00
2019-01-11T12:27:57.529Z,16.87
2019-01-11T12:30:25.386Z,18.57
2019-01-11T12:32:53.191Z,18.98
2019-01-11T12:35:21.073Z,20.08
2019-01-11T12:37:48.747Z,18.55
2019-01-11T12:40:16.567Z,17.82
2019-01-11T12:42:44.196Z,16.77
2019-01-11T12:45:13.075Z,16.90
2019-01-11T12:47:42.012Z,15.60
2019-01-11T12:50:21.346Z,16.27
2019-01-11T12:52:49.273Z,17.30
2019-01-11T12:55:19.591Z,18.55
2019-01-11T12:57:47.532Z,18.67
2019-01-11T13:00:16.617Z,18.75
2019-01-11T13:02:44.660Z,19.05
2019-01-11T13:05:18.292Z,19.20
2019-01-11T13:07:47.970Z,18.20
2019-01-11T13:10:16.950Z,17.30
2019-01-11T13:12:44.508Z,19.30
2019-01-11T13:15:14.615Z,21.12
2019-01-11T13:17:42.355Z,23.80
2019-01-11T13:20:11.939Z,22.80
2019-01-11T13:22:40.352Z,24.52
2019-01-11T13:25:08.737Z,26.80
2019-01-11T13:27:36.551Z,25.55
2019-01-11T13:30:09.794Z,25.52
2019-01-11T13:32:39.747Z,25.37
2019-01-11T13:35:07.408Z,26.77
2019-01-11T13:37:35.074Z,27.65
2019-01-11T13:40:07.570Z,28.35
2019-01-11T13:42:36.488Z,23.07
2019-01-11T13:45:05.405Z,21.62
2019-01-11T13:47:33.332Z,22.73
2019-01-11T13:50:03.084Z,20.68
2019-01-11T13:52:30.818Z,18.77
2019-01-11T13:54:58.802Z,19.62
2019-01-11T13:57:26.506Z,17.55
2019-01-11T13:59:54.479Z,20.48
2019-01-11T14:02:22.222Z,15.70
2019-01-11T14:04:50.162Z,16.73
2019-01-11T14:07:17.980Z,20.77
2019-01-11T14:09:45.665Z,16.42
2019-01-11T14:12:14.527Z,16.25
2019-01-11T14:14:42.454Z,18.95
2019-01-11T14:17:10.241Z,19.52
2019-01-11T14:19:38.163Z,19.20
2019-01-11T14:22:06.210Z,19.55
2019-01-11T14:24:34.891Z,18.42
2019-01-11T14:27:03.889Z,18.87
2019-01-11T14:29:31.789Z,16.93
2019-01-11T14:31:59.530Z,13.80
2019-01-11T14:34:27.575Z,15.72
2019-01-11T14:36:55.536Z,18.02
2019-01-11T14:39:23.612Z,15.35
2019-01-11T14:41:52.676Z,15.80
2019-01-11T14:44:20.335Z,16.55
2019-01-11T14:46:50.048Z,16.48
2019-01-11T14:49:17.872Z,17.27
2019-01-11T14:51:47.805Z,15.75
2019-01-11T14:54:15.379Z,17.60
2019-01-11T14:56:43.501Z,15.98
2019-01-11T14:59:11.315Z,14.38
2019-01-11T15:01:40.164Z,13.50
2019-01-11T15:04:07.954Z,15.05
2019-01-11T15:06:35.570Z,16.67
2019-01-11T15:09:06.506Z,15.32
2019-01-11T15:11:34.558Z,17.20
2019-01-11T15:14:04.312Z,17.92
2019-01-11T15:16:32.931Z,15.05
2019-01-11T15:19:03.588Z,17.17
2019-01-11T15:21:31.301Z,16.02
2019-01-11T15:23:59.135Z,17.12
2019-01-11T15:26:26.997Z,17.30
2019-01-11T15:28:54.737Z,19.02
2019-01-11T15:31:22.384Z,17.62
2019-01-11T15:33:55.802Z,21.20
2019-01-11T15:36:23.723Z,18.27
2019-01-11T15:38:53.645Z,22.50
2019-01-11T15:41:21.502Z,21.82
2019-01-11T15:43:49.441Z,23.07
2019-01-11T15:46:17.062Z,19.75
2019-01-11T15:48:49.583Z,16.80
2019-01-11T15:51:20.170Z,17.70
2019-01-11T15:53:54.063Z,18.50
2019-01-11T15:56:25.605Z,18.25
2019-01-11T15:58:53.448Z,18.40
2019-01-11T16:01:23.125Z,19.80
2019-01-11T16:03:52.266Z,22.30
2019-01-11T16:06:39.171Z,20.17
2019-01-11T16:10:17.922Z,24.30
2019-01-11T16:12:56.358Z,25.12
2019-01-11T16:15:47.625Z,24.98
2019-01-11T16:18:22.168Z,18.02
2019-01-11T16:20:50.362Z,20.12
2019-01-11T16:23:18.263Z,18.42
2019-01-11T16:25:46.022Z,17.90
2019-01-11T16:28:14.343Z,20.25
2019-01-11T16:30:45.125Z,25.95
2019-01-11T16:33:12.884Z,19.75
2019-01-11T16:35:40.719Z,22.17
2019-01-11T16:38:09.582Z,20.40
2019-01-11T16:40:41.319Z,19.02
2019-01-11T16:43:09.319Z,19.73
2019-01-11T16:45:37.023Z,22.70
2019-01-11T16:48:05.159Z,17.87
2019-01-11T16:50:32.816Z,23.02
2019-01-11T16:53:00.762Z,20.25
2019-01-11T16:55:28.353Z,18.60
2019-01-11T16:57:56.072Z,16.82
2019-01-11T17:00:24.123Z,15.30
2019-01-11T17:02:51.848Z,16.20
2019-01-11T17:05:20.945Z,15.75
2019-01-11T17:07:50.763Z,16.25
2019-01-11T17:10:18.656Z,14.25
2019-01-11T17:12:48.542Z,16.85
2019-01-11T17:15:19.665Z,15.25
2019-01-11T17:17:48.339Z,15.32
2019-01-11T17:20:17.016Z,16.65
2019-01-11T17:22:52.930Z,20.60
2019-01-11T17:25:17.727Z,17.05
2019-01-11T17:27:52.522Z,17.02
2019-01-11T17:30:20.463Z,17.40
2019-01-11T17:32:49.150Z,14.20
2019-01-11T17:35:17.851Z,18.00
2019-01-11T17:37:45.601Z,16.45
2019-01-11T17:40:14.639Z,16.75
2019-01-11T17:42:42.649Z,15.83
2019-01-11T17:45:14.179Z,17.32
2019-01-11T17:47:42.457Z,18.73
2019-01-11T17:50:15.268Z,16.57
2019-01-11T17:52:44.862Z,18.40
2019-01-11T17:55:12.637Z,19.92
2019-01-11T17:57:40.835Z,16.35
2019-01-11T18:00:13.966Z,17.25
2019-01-11T18:02:42.939Z,17.60
2019-01-11T18:05:11.461Z,19.12
2019-01-11T18:07:39.417Z,19.05
2019-01-11T18:10:08.747Z,17.73
2019-01-11T18:12:38.251Z,16.80
2019-01-11T18:15:09.841Z,16.95
2019-01-11T18:17:38.096Z,15.78
2019-01-11T18:20:10.171Z,15.55
2019-01-11T18:22:39.181Z,16.17
2019-01-11T18:25:09.816Z,14.43
2019-01-11T18:27:37.937Z,16.05
2019-01-11T18:30:07.825Z,15.98
2019-01-11T18:32:35.840Z,17.48
2019-01-11T18:35:04.731Z,17.00
2019-01-11T18:37:32.362Z,14.93
2019-01-11T18:39:59.988Z,18.57
2019-01-11T18:42:29.144Z,14.85
2019-01-11T18:44:56.972Z,15.65
2019-01-11T18:47:24.838Z,17.45
2019-01-11T18:49:53.600Z,15.50
2019-01-11T18:52:21.351Z,15.40
2019-01-11T18:54:49.187Z,16.85
2019-01-11T18:57:18.827Z,13.28
2019-01-11T18:59:46.701Z,15.30
2019-01-11T19:02:14.465Z,15.90
2019-01-11T19:04:43.225Z,17.35
2019-01-11T19:07:13.496Z,17.80
2019-01-11T19:09:41.708Z,19.90
2019-01-11T19:12:14.848Z,19.60
2019-01-11T19:14:44.072Z,18.60
2019-01-11T19:17:12.268Z,19.90
2019-01-11T19:19:39.993Z,21.40
2019-01-11T19:22:09.898Z,21.68
2019-01-11T19:24:40.450Z,18.55
2019-01-11T19:27:08.857Z,20.17
2019-01-11T19:29:36.579Z,20.30
2019-01-11T19:32:06.477Z,18.82
2019-01-11T19:34:34.067Z,17.42
2019-01-11T19:37:02.243Z,18.92
2019-01-11T19:39:30.081Z,18.42
2019-01-11T19:41:58.830Z,20.02
2019-01-11T19:44:27.578Z,24.30
2019-01-11T19:46:55.771Z,19.05
2019-01-11T19:49:27.665Z,19.92
2019-01-11T19:51:55.906Z,21.82
2019-01-11T19:54:25.963Z,24.82
2019-01-11T19:56:54.653Z,22.13
2019-01-11T19:59:24.500Z,25.17
2019-01-11T20:01:55.642Z,24.60
2019-01-11T20:04:55.763Z,22.25
2019-01-11T20:07:32.652Z,24.65
2019-01-11T20:10:05.865Z,18.85
2019-01-11T20:12:37.793Z,25.15
2019-01-11T20:15:40.158Z,22.10
2019-01-11T20:18:39.863Z,32.65
2019-01-11T20:21:10.754Z,27.30
2019-01-11T20:23:44.317Z,23.55
2019-01-11T20:26:19.456Z,24.10
2019-01-11T20:28:47.151Z,23.05
2019-01-11T20:31:17.931Z,24.35
2019-01-11T20:33:45.936Z,25.00
2019-01-11T20:36:13.802Z,25.40
2019-01-11T20:38:42.501Z,21.75
2019-01-11T20:41:10.459Z,21.20
2019-01-11T20:43:39.576Z,21.57
2019-01-11T20:46:08.462Z,19.55
2019-01-11T20:48:38.621Z,19.35
2019-01-11T20:51:06.407Z,21.07
2019-01-11T20:53:34.230Z,20.62
2019-01-11T20:56:02.116Z,21.25
2019-01-11T20:58:30.369Z,20.88
2019-01-11T21:00:58.480Z,20.17
2019-01-11T21:03:26.133Z,20.70
2019-01-11T21:05:54.890Z,22.37
2019-01-11T21:08:22.805Z,22.62
2019-01-11T21:10:51.044Z,21.70
2019-01-11T21:13:18.825Z,17.40
2019-01-11T21:15:48.012Z,20.00
2019-01-11T21:18:15.646Z,20.75
2019-01-11T21:20:43.472Z,22.40
2019-01-11T21:23:12.359Z,21.60
2019-01-11T21:25:45.866Z,20.40
2019-01-11T21:28:14.484Z,22.73
2019-01-11T21:30:43.274Z,19.77
2019-01-11T21:33:11.180Z,19.52
2019-01-11T21:35:39.077Z,19.52
2019-01-11T21:38:07.054Z,19.70
2019-01-11T21:40:38.879Z,19.55
2019-01-11T21:43:06.899Z,19.87
2019-01-11T21:45:35.382Z,18.87
2019-01-11T21:48:03.570Z,21.73
2019-01-11T21:50:39.400Z,19.90
2019-01-11T21:53:08.240Z,20.82
2019-01-11T21:55:37.971Z,20.97
2019-01-11T21:58:05.537Z,19.10
2019-01-11T22:00:44.415Z,19.52
2019-01-11T22:03:20.125Z,21.60
2019-01-11T22:05:48.885Z,19.98
2019-01-11T22:08:16.725Z,19.50
2019-01-11T22:10:53.573Z,21.20
2019-01-11T22:13:21.409Z,19.12
2019-01-11T22:15:49.306Z,20.48
2019-01-11T22:18:17.144Z,19.07
2019-01-11T22:20:44.981Z,20.82
2019-01-11T22:23:14.628Z,19.92
2019-01-11T22:25:45.915Z,20.75
2019-01-11T22:28:13.931Z,18.15
2019-01-11T22:30:47.577Z,19.87
2019-01-11T22:33:15.405Z,20.95
2019-01-11T22:35:43.108Z,21.40
2019-01-11T22:38:11.024Z,19.10
2019-01-11T22:40:38.987Z,18.42
2019-01-11T22:43:06.770Z,20.12
2019-01-11T22:45:34.956Z,21.20
2019-01-11T22:48:03.110Z,21.15
2019-01-11T22:50:31.155Z,18.87
2019-01-11T22:52:59.093Z,17.32
2019-01-11T22:55:26.910Z,17.50
2019-01-11T22:57:54.870Z,18.30
2019-01-11T23:00:48.121Z,20.23
2019-01-11T23:03:21.119Z,21.75
2019-01-11T23:05:50.264Z,20.17
2019-01-11T23:08:20.278Z,20.97
2019-01-11T23:11:34.651Z,20.57
2019-01-11T23:14:03.607Z,17.90
2019-01-11T23:16:46.310Z,19.32
2019-01-11T23:19:20.471Z,16.60
2019-01-11T23:21:48.074Z,17.62
2019-01-11T23:24:17.438Z,17.67
2019-01-11T23:26:47.869Z,17.20
2019-01-11T23:29:19.427Z,16.07
2019-01-11T23:31:47.666Z,18.30
2019-01-11T23:34:15.528Z,16.95
2019-01-11T23:36:45.088Z,16.60
2019-01-11T23:39:14.165Z,18.12
2019-01-11T23:41:46.836Z,16.55
2019-01-11T23:44:14.937Z,16.70
2019-01-11T23:46:42.555Z,18.02
2019-01-11T23:49:13.712Z,17.82
2019-01-11T23:51:41.593Z,16.60
2019-01-11T23:54:09.165Z,16.45
2019-01-11T23:56:36.862Z,16.77
2019-01-11T23:59:09.728Z,18.73
